Terminal Aerodrome Forecast
Issued by NWS

Home | Current Version | Previous Version | Text Only | Print | Product List | Glossary On
Versions: 1 2 3 4 5 6 7 8 9 10 11 12 13 14 15 16 17 18 19
000
FTAK31 PAFA 222336
TAFASC
TAF
PASC 222336Z 2300/2324 07012KT 6SM -SN BR OVC008
      TEMPO 2300/2303 3SM -SN BR OVC008
     FM230600 07008KT 3SM -SN BR OVC003
     FM230900 VRB06KT 1 1/2SM -SN BR OVC003
     FM231200 VRB06KT 1/2SM -SN FZFG OVC003
     FM231500 VRB06KT 4SM -SN BR OVC007=

USA.gov is the U.S. government's official web portal to all federal, state and local government web resources and services.